sensor_id;sensor_type;location;lat;lon;timestamp;pressure;altitude;pressure_sealevel;temperature;humidity
76086;BME280;64791;0.000;0.000;2024-01-30T00:01:25;95657.81;;;3.63;47.59
76086;BME280;64791;0.000;0.000;2024-01-30T00:03:51;95662.97;;;3.61;48.06
76086;BME280;64791;0.000;0.000;2024-01-30T00:06:19;95656.47;;;3.59;47.93
76086;BME280;64791;0.000;0.000;2024-01-30T00:08:49;95665.09;;;3.57;47.86
76086;BME280;64791;0.000;0.000;2024-01-30T00:11:15;95664.50;;;3.53;47.79
76086;BME280;64791;0.000;0.000;2024-01-30T00:13:41;95664.19;;;3.51;47.90
76086;BME280;64791;0.000;0.000;2024-01-30T00:16:07;95670.59;;;3.48;47.83
76086;BME280;64791;0.000;0.000;2024-01-30T00:18:34;95669.53;;;3.46;48.20
76086;BME280;64791;0.000;0.000;2024-01-30T00:21:00;95666.50;;;3.44;47.92
76086;BME280;64791;0.000;0.000;2024-01-30T00:23:26;95666.19;;;3.42;47.84
76086;BME280;64791;0.000;0.000;2024-01-30T00:25:51;95664.97;;;3.43;47.82
76086;BME280;64791;0.000;0.000;2024-01-30T00:28:17;95671.78;;;3.38;48.06
76086;BME280;64791;0.000;0.000;2024-01-30T00:30:42;95666.34;;;3.38;48.12
76086;BME280;64791;0.000;0.000;2024-01-30T00:33:08;95672.25;;;3.37;47.68
76086;BME280;64791;0.000;0.000;2024-01-30T00:35:34;95670.75;;;3.36;47.83
76086;BME280;64791;0.000;0.000;2024-01-30T00:37:59;95663.78;;;3.35;47.62
76086;BME280;64791;0.000;0.000;2024-01-30T00:40:25;95660.47;;;3.31;47.75
76086;BME280;64791;0.000;0.000;2024-01-30T00:42:51;95667.13;;;3.30;47.44
76086;BME280;64791;0.000;0.000;2024-01-30T00:45:16;95660.31;;;3.25;48.13
76086;BME280;64791;0.000;0.000;2024-01-30T00:47:42;95671.97;;;3.26;48.09
76086;BME280;64791;0.000;0.000;2024-01-30T00:50:08;95666.22;;;3.24;48.14
76086;BME280;64791;0.000;0.000;2024-01-30T00:52:34;95663.19;;;3.22;48.08
76086;BME280;64791;0.000;0.000;2024-01-30T00:55:00;95660.47;;;3.22;48.22
76086;BME280;64791;0.000;0.000;2024-01-30T00:57:25;95662.13;;;3.19;48.14
76086;BME280;64791;0.000;0.000;2024-01-30T00:59:52;95661.41;;;3.19;47.93
76086;BME280;64791;0.000;0.000;2024-01-30T01:02:18;95651.84;;;3.14;48.03
76086;BME280;64791;0.000;0.000;2024-01-30T01:04:44;95653.81;;;3.14;47.77
76086;BME280;64791;0.000;0.000;2024-01-30T01:07:10;95657.75;;;3.13;48.06
76086;BME280;64791;0.000;0.000;2024-01-30T01:09:36;95656.38;;;3.08;48.39
76086;BME280;64791;0.000;0.000;2024-01-30T01:12:02;95650.63;;;3.06;47.91
76086;BME280;64791;0.000;0.000;2024-01-30T01:14:28;95658.50;;;3.04;47.75
76086;BME280;64791;0.000;0.000;2024-01-30T01:16:53;95656.25;;;3.03;48.11
76086;BME280;64791;0.000;0.000;2024-01-30T01:19:19;95649.44;;;2.98;48.09
76086;BME280;64791;0.000;0.000;2024-01-30T01:21:45;95653.69;;;2.99;47.67
76086;BME280;64791;0.000;0.000;2024-01-30T01:24:12;95658.53;;;2.95;47.66
76086;BME280;64791;0.000;0.000;2024-01-30T01:26:38;95661.25;;;2.95;47.94
76086;BME280;64791;0.000;0.000;2024-01-30T01:29:03;95656.84;;;2.98;48.05
76086;BME280;64791;0.000;0.000;2024-01-30T01:31:36;95664.72;;;2.96;47.47
76086;BME280;64791;0.000;0.000;2024-01-30T01:34:12;95663.34;;;2.91;47.83
76086;BME280;64791;0.000;0.000;2024-01-30T01:36:38;95657.59;;;2.89;47.49
76086;BME280;64791;0.000;0.000;2024-01-30T01:39:04;95659.13;;;2.90;47.80
76086;BME280;64791;0.000;0.000;2024-01-30T01:41:32;95656.88;;;2.88;47.99
76086;BME280;64791;0.000;0.000;2024-01-30T01:43:58;95661.09;;;2.89;47.75
76086;BME280;64791;0.000;0.000;2024-01-30T01:46:27;95664.41;;;2.94;48.09
76086;BME280;64791;0.000;0.000;2024-01-30T01:48:55;95667.44;;;2.96;47.83
76086;BME280;64791;0.000;0.000;2024-01-30T01:51:21;95669.72;;;2.97;48.15
76086;BME280;64791;0.000;0.000;2024-01-30T01:53:48;95673.06;;;3.01;48.36
76086;BME280;64791;0.000;0.000;2024-01-30T01:56:14;95671.25;;;3.07;48.25
76086;BME280;64791;0.000;0.000;2024-01-30T02:01:18;95673.03;;;3.19;48.06
76086;BME280;64791;0.000;0.000;2024-01-30T02:03:45;95673.19;;;3.25;48.41
76086;BME280;64791;0.000;0.000;2024-01-30T02:06:11;95669.09;;;3.29;48.10
76086;BME280;64791;0.000;0.000;2024-01-30T02:08:37;95679.69;;;3.36;48.16
76086;BME280;64791;0.000;0.000;2024-01-30T02:11:03;95669.38;;;3.40;48.29
76086;BME280;64791;0.000;0.000;2024-01-30T02:13:28;95676.47;;;3.47;48.71
76086;BME280;64791;0.000;0.000;2024-01-30T02:15:54;95673.59;;;3.50;48.50
76086;BME280;64791;0.000;0.000;2024-01-30T02:18:20;95672.25;;;3.55;48.85
76086;BME280;64791;0.000;0.000;2024-01-30T02:20:48;95672.06;;;3.58;48.67
76086;BME280;64791;0.000;0.000;2024-01-30T02:23:15;95674.19;;;3.63;48.67
76086;BME280;64791;0.000;0.000;2024-01-30T02:25:42;95677.50;;;3.68;48.60
76086;BME280;64791;0.000;0.000;2024-01-30T02:28:10;95663.69;;;3.71;48.39
76086;BME280;64791;0.000;0.000;2024-01-30T02:30:37;95675.97;;;3.76;48.58
76086;BME280;64791;0.000;0.000;2024-01-30T02:33:03;95671.09;;;3.80;48.53
76086;BME280;64791;0.000;0.000;2024-01-30T02:35:29;95673.34;;;3.81;48.58
76086;BME280;64791;0.000;0.000;2024-01-30T02:37:54;95665.78;;;3.85;48.50
76086;BME280;64791;0.000;0.000;2024-01-30T02:40:20;95673.78;;;3.89;48.62
76086;BME280;64791;0.000;0.000;2024-01-30T02:42:46;95672.13;;;3.91;48.67
76086;BME280;64791;0.000;0.000;2024-01-30T02:45:12;95673.47;;;3.96;48.48
76086;BME280;64791;0.000;0.000;2024-01-30T02:47:38;95669.50;;;3.97;48.78
76086;BME280;64791;0.000;0.000;2024-01-30T02:50:04;95667.38;;;4.01;48.69
76086;BME280;64791;0.000;0.000;2024-01-30T02:52:29;95661.75;;;4.04;48.61
76086;BME280;64791;0.000;0.000;2024-01-30T02:54:55;95665.22;;;4.05;48.29
76086;BME280;64791;0.000;0.000;2024-01-30T02:57:21;95672.50;;;4.08;48.80
76086;BME280;64791;0.000;0.000;2024-01-30T02:59:46;95665.38;;;4.10;48.39
76086;BME280;64791;0.000;0.000;2024-01-30T03:02:12;95671.88;;;4.13;48.35
76086;BME280;64791;0.000;0.000;2024-01-30T03:04:40;95664.75;;;4.15;48.91
76086;BME280;64791;0.000;0.000;2024-01-30T03:07:06;95670.50;;;4.17;48.61
76086;BME280;64791;0.000;0.000;2024-01-30T03:09:31;95666.06;;;4.20;48.71
76086;BME280;64791;0.000;0.000;2024-01-30T03:11:57;95664.84;;;4.21;48.65
76086;BME280;64791;0.000;0.000;2024-01-30T03:14:23;95663.19;;;4.23;48.16
76086;BME280;64791;0.000;0.000;2024-01-30T03:16:48;95663.19;;;4.23;48.62
76086;BME280;64791;0.000;0.000;2024-01-30T03:19:14;95660.56;;;4.29;48.58
76086;BME280;64791;0.000;0.000;2024-01-30T03:21:40;95655.88;;;4.29;48.58
76086;BME280;64791;0.000;0.000;2024-01-30T03:24:06;95656.16;;;4.31;48.38
76086;BME280;64791;0.000;0.000;2024-01-30T03:26:31;95661.91;;;4.33;48.54
76086;BME280;64791;0.000;0.000;2024-01-30T03:28:57;95660.69;;;4.34;48.66
76086;BME280;64791;0.000;0.000;2024-01-30T06:33:37;95696.72;;;-0.39;56.78
76086;BME280;64791;0.000;0.000;2024-01-30T06:36:03;95696.84;;;-0.04;55.60
76086;BME280;64791;0.000;0.000;2024-01-30T06:38:29;95701.91;;;0.19;55.16
76086;BME280;64791;0.000;0.000;2024-01-30T06:40:55;95704.25;;;0.54;54.87
76086;BME280;64791;0.000;0.000;2024-01-30T06:43:20;95693.94;;;0.84;54.25
76086;BME280;64791;0.000;0.000;2024-01-30T06:45:47;95699.72;;;1.07;53.94
76086;BME280;64791;0.000;0.000;2024-01-30T06:48:13;95704.38;;;1.28;53.72
76086;BME280;64791;0.000;0.000;2024-01-30T06:50:38;95707.97;;;1.47;53.51
76086;BME280;64791;0.000;0.000;2024-01-30T06:53:04;95715.38;;;1.68;52.79
76086;BME280;64791;0.000;0.000;2024-01-30T06:55:30;95710.56;;;1.81;52.63
76086;BME280;64791;0.000;0.000;2024-01-30T06:57:56;95706.00;;;2.00;52.81
76086;BME280;64791;0.000;0.000;2024-01-30T07:00:22;95706.22;;;2.24;52.25
76086;BME280;64791;0.000;0.000;2024-01-30T07:02:47;95708.25;;;2.50;52.50
76086;BME280;64791;0.000;0.000;2024-01-30T07:05:13;95712.53;;;2.78;51.79
76086;BME280;64791;0.000;0.000;2024-01-30T07:07:40;95699.56;;;3.19;50.79
76086;BME280;64791;0.000;0.000;2024-01-30T07:10:06;95708.28;;;3.59;50.66
76086;BME280;64791;0.000;0.000;2024-01-30T07:12:32;95705.97;;;3.76;50.43
76086;BME280;64791;0.000;0.000;2024-01-30T07:14:57;95703.94;;;3.94;49.80
76086;BME280;64791;0.000;0.000;2024-01-30T07:17:25;95699.91;;;4.13;49.89
76086;BME280;64791;0.000;0.000;2024-01-30T07:19:50;95700.31;;;4.30;50.12
76086;BME280;64791;0.000;0.000;2024-01-30T07:22:16;95700.22;;;4.48;49.93
76086;BME280;64791;0.000;0.000;2024-01-30T07:24:42;95698.59;;;4.65;49.63
76086;BME280;64791;0.000;0.000;2024-01-30T07:27:10;95694.56;;;4.84;49.30
76086;BME280;64791;0.000;0.000;2024-01-30T07:29:36;95696.13;;;5.00;48.86
76086;BME280;64791;0.000;0.000;2024-01-30T07:32:01;95694.66;;;5.13;48.85
76086;BME280;64791;0.000;0.000;2024-01-30T07:34:27;95697.13;;;5.26;48.36
76086;BME280;64791;0.000;0.000;2024-01-30T07:36:53;95691.59;;;5.35;48.42
76086;BME280;64791;0.000;0.000;2024-01-30T07:39:18;95691.78;;;5.46;47.56
76086;BME280;64791;0.000;0.000;2024-01-30T07:41:44;95690.94;;;5.55;47.44
76086;BME280;64791;0.000;0.000;2024-01-30T07:44:10;95688.59;;;5.62;47.22
76086;BME280;64791;0.000;0.000;2024-01-30T07:46:35;95695.94;;;5.71;47.10
76086;BME280;64791;0.000;0.000;2024-01-30T07:49:01;95689.53;;;5.74;46.87
76086;BME280;64791;0.000;0.000;2024-01-30T07:51:27;95696.34;;;5.78;47.06
76086;BME280;64791;0.000;0.000;2024-01-30T07:53:54;95694.91;;;5.83;46.72
76086;BME280;64791;0.000;0.000;2024-01-30T07:56:20;95699.72;;;5.88;46.83
76086;BME280;64791;0.000;0.000;2024-01-30T07:58:46;95689.59;;;5.94;46.94
76086;BME280;64791;0.000;0.000;2024-01-30T08:01:12;95693.94;;;6.01;46.67
76086;BME280;64791;0.000;0.000;2024-01-30T08:03:37;95690.34;;;6.09;46.85
76086;BME280;64791;0.000;0.000;2024-01-30T08:06:06;95684.09;;;6.23;46.70
76086;BME280;64791;0.000;0.000;2024-01-30T08:08:32;95682.16;;;6.44;46.70
76086;BME280;64791;0.000;0.000;2024-01-30T08:10:57;95687.97;;;6.66;46.19
76086;BME280;64791;0.000;0.000;2024-01-30T08:13:23;95681.78;;;6.91;46.01
76086;BME280;64791;0.000;0.000;2024-01-30T08:15:49;95688.84;;;7.18;45.84
76086;BME280;64791;0.000;0.000;2024-01-30T08:18:14;95679.44;;;7.44;45.73
76086;BME280;64791;0.000;0.000;2024-01-30T08:20:40;95674.00;;;7.76;45.23
76086;BME280;64791;0.000;0.000;2024-01-30T08:23:06;95673.34;;;8.17;44.62
76086;BME280;64791;0.000;0.000;2024-01-30T08:25:32;95673.91;;;8.64;43.11
76086;BME280;64791;0.000;0.000;2024-01-30T08:27:58;95666.69;;;9.20;42.81
76086;BME280;64791;0.000;0.000;2024-01-30T08:30:23;95670.59;;;9.77;41.90
76086;BME280;64791;0.000;0.000;2024-01-30T08:32:49;95676.88;;;10.39;40.81
76086;BME280;64791;0.000;0.000;2024-01-30T08:35:15;95679.53;;;11.00;40.29
76086;BME280;64791;0.000;0.000;2024-01-30T08:37:42;95692.72;;;11.35;39.61
76086;BME280;64791;0.000;0.000;2024-01-30T08:40:08;95688.34;;;11.50;38.86
76086;BME280;64791;0.000;0.000;2024-01-30T08:42:36;95685.69;;;11.33;39.08
76086;BME280;64791;0.000;0.000;2024-01-30T08:45:02;95684.03;;;11.03;39.09
76086;BME280;64791;0.000;0.000;2024-01-30T08:47:30;95687.66;;;10.70;39.11
76086;BME280;64791;0.000;0.000;2024-01-30T08:49:56;95692.41;;;10.47;40.10
76086;BME280;64791;0.000;0.000;2024-01-30T08:52:21;95695.19;;;10.31;39.94
76086;BME280;64791;0.000;0.000;2024-01-30T08:54:47;95690.66;;;10.11;40.63
76086;BME280;64791;0.000;0.000;2024-01-30T08:57:13;95690.66;;;10.00;40.81
76086;BME280;64791;0.000;0.000;2024-01-30T08:59:38;95694.41;;;10.08;40.75
76086;BME280;64791;0.000;0.000;2024-01-30T09:02:05;95688.91;;;10.30;40.61
76086;BME280;64791;0.000;0.000;2024-01-30T09:04:31;95689.91;;;10.33;40.45
76086;BME280;64791;0.000;0.000;2024-01-30T09:06:57;95682.38;;;10.39;40.76
76086;BME280;64791;0.000;0.000;2024-01-30T09:09:22;95685.84;;;10.84;40.55
76086;BME280;64791;0.000;0.000;2024-01-30T09:11:48;95680.63;;;11.43;39.42
76086;BME280;64791;0.000;0.000;2024-01-30T09:14:14;95674.19;;;12.11;38.62
76086;BME280;64791;0.000;0.000;2024-01-30T09:16:40;95675.03;;;12.84;37.96
76086;BME280;64791;0.000;0.000;2024-01-30T09:19:05;95679.50;;;13.11;37.15
76086;BME280;64791;0.000;0.000;2024-01-30T09:21:31;95673.53;;;13.07;37.09
76086;BME280;64791;0.000;0.000;2024-01-30T09:24:01;95681.78;;;12.89;36.99
76086;BME280;64791;0.000;0.000;2024-01-30T09:26:28;95676.75;;;12.63;36.74
76086;BME280;64791;0.000;0.000;2024-01-30T09:28:54;95684.97;;;12.44;37.24
76086;BME280;64791;0.000;0.000;2024-01-30T09:31:19;95690.19;;;12.24;36.97
76086;BME280;64791;0.000;0.000;2024-01-30T09:33:45;95681.78;;;12.05;37.41
76086;BME280;64791;0.000;0.000;2024-01-30T09:36:13;95686.13;;;11.89;37.54
76086;BME280;64791;0.000;0.000;2024-01-30T09:38:41;95680.47;;;11.71;37.82
76086;BME280;64791;0.000;0.000;2024-01-30T09:41:09;95686.81;;;11.60;38.28
76086;BME280;64791;0.000;0.000;2024-01-30T09:43:36;95685.81;;;11.52;38.23
76086;BME280;64791;0.000;0.000;2024-01-30T09:46:03;95677.84;;;11.43;38.44
76086;BME280;64791;0.000;0.000;2024-01-30T09:48:29;95674.09;;;11.35;38.62
76086;BME280;64791;0.000;0.000;2024-01-30T09:50:56;95680.19;;;11.28;38.78
76086;BME280;64791;0.000;0.000;2024-01-30T09:53:23;95672.44;;;11.21;38.60
76086;BME280;64791;0.000;0.000;2024-01-30T09:55:49;95666.66;;;11.13;38.86
76086;BME280;64791;0.000;0.000;2024-01-30T09:58:16;95668.69;;;11.07;38.84
76086;BME280;64791;0.000;0.000;2024-01-30T10:00:42;95663.97;;;11.02;38.49
76086;BME280;64791;0.000;0.000;2024-01-30T10:03:08;95662.25;;;10.94;39.15
76086;BME280;64791;0.000;0.000;2024-01-30T10:05:34;95654.47;;;10.87;38.93
76086;BME280;64791;0.000;0.000;2024-01-30T10:08:01;95668.56;;;10.78;39.42
76086;BME280;64791;0.000;0.000;2024-01-30T10:10:28;95668.34;;;10.70;39.22
76086;BME280;64791;0.000;0.000;2024-01-30T10:12:53;95662.03;;;10.64;39.79
76086;BME280;64791;0.000;0.000;2024-01-30T10:15:19;95664.56;;;10.56;39.83
76086;BME280;64791;0.000;0.000;2024-01-30T10:17:45;95660.56;;;10.52;39.94
76086;BME280;64791;0.000;0.000;2024-01-30T10:20:12;95660.06;;;10.48;40.46
76086;BME280;64791;0.000;0.000;2024-01-30T10:22:37;95663.56;;;10.43;40.23
76086;BME280;64791;0.000;0.000;2024-01-30T10:25:04;95660.31;;;10.39;40.29
76086;BME280;64791;0.000;0.000;2024-01-30T10:27:30;95661.81;;;10.34;40.16
76086;BME280;64791;0.000;0.000;2024-01-30T10:29:56;95654.31;;;10.29;40.91
76086;BME280;64791;0.000;0.000;2024-01-30T10:32:21;95662.34;;;10.27;40.21
76086;BME280;64791;0.000;0.000;2024-01-30T10:34:47;95664.59;;;10.23;40.18
76086;BME280;64791;0.000;0.000;2024-01-30T10:37:13;95661.34;;;10.19;40.50
76086;BME280;64791;0.000;0.000;2024-01-30T10:39:41;95657.56;;;10.17;40.29
76086;BME280;64791;0.000;0.000;2024-01-30T10:42:15;95649.56;;;10.13;39.94
76086;BME280;64791;0.000;0.000;2024-01-30T10:47:21;95647.28;;;10.06;40.58
76086;BME280;64791;0.000;0.000;2024-01-30T10:49:51;95657.34;;;10.04;40.57
76086;BME280;64791;0.000;0.000;2024-01-30T10:52:17;95649.31;;;10.00;40.32
76086;BME280;64791;0.000;0.000;2024-01-30T10:54:44;95650.06;;;9.95;40.33
76086;BME280;64791;0.000;0.000;2024-01-30T10:57:10;95648.81;;;9.91;40.52
76086;BME280;64791;0.000;0.000;2024-01-30T10:59:36;95653.06;;;9.86;40.42
76086;BME280;64791;0.000;0.000;2024-01-30T11:02:02;95648.03;;;9.85;40.23
76086;BME280;64791;0.000;0.000;2024-01-30T11:04:35;95641.03;;;9.84;40.34
76086;BME280;64791;0.000;0.000;2024-01-30T11:07:01;95641.56;;;9.82;40.45
76086;BME280;64791;0.000;0.000;2024-01-30T11:09:29;95636.53;;;9.80;40.76
76086;BME280;64791;0.000;0.000;2024-01-30T11:11:58;95630.53;;;9.82;40.31
76086;BME280;64791;0.000;0.000;2024-01-30T11:14:28;95629.25;;;9.83;40.89
76086;BME280;64791;0.000;0.000;2024-01-30T11:16:57;95630.75;;;9.90;40.29
76086;BME280;64791;0.000;0.000;2024-01-30T11:19:24;95630.03;;;9.95;40.46
76086;BME280;64791;0.000;0.000;2024-01-30T11:21:52;95630.25;;;10.02;40.04
76086;BME280;64791;0.000;0.000;2024-01-30T11:24:22;95634.00;;;10.10;40.42
76086;BME280;64791;0.000;0.000;2024-01-30T11:26:49;95636.53;;;10.19;40.27
76086;BME280;64791;0.000;0.000;2024-01-30T11:29:16;95638.00;;;10.26;40.04
76086;BME280;64791;0.000;0.000;2024-01-30T11:31:51;95631.75;;;10.31;39.70
76086;BME280;64791;0.000;0.000;2024-01-30T11:34:18;95633.00;;;10.35;39.89
76086;BME280;64791;0.000;0.000;2024-01-30T11:36:44;95625.97;;;10.40;39.76
76086;BME280;64791;0.000;0.000;2024-01-30T11:39:11;95634.22;;;10.45;39.79
76086;BME280;64791;0.000;0.000;2024-01-30T11:41:38;95620.41;;;10.51;39.60
76086;BME280;64791;0.000;0.000;2024-01-30T11:44:05;95620.91;;;10.61;39.83
76086;BME280;64791;0.000;0.000;2024-01-30T11:46:31;95609.63;;;10.70;39.87
76086;BME280;64791;0.000;0.000;2024-01-30T11:48:57;95611.59;;;10.80;39.53
76086;BME280;64791;0.000;0.000;2024-01-30T11:51:22;95608.78;;;10.91;40.06
76086;BME280;64791;0.000;0.000;2024-01-30T11:53:49;95617.28;;;11.04;39.57
76086;BME280;64791;0.000;0.000;2024-01-30T11:56:15;95608.19;;;11.15;39.48
76086;BME280;64791;0.000;0.000;2024-01-30T11:58:43;95601.78;;;11.37;39.19
76086;BME280;64791;0.000;0.000;2024-01-30T12:01:09;95603.69;;;11.53;39.19
76086;BME280;64791;0.000;0.000;2024-01-30T12:03:35;95598.94;;;11.88;39.78
76086;BME280;64791;0.000;0.000;2024-01-30T12:06:02;95599.34;;;12.28;38.63
76086;BME280;64791;0.000;0.000;2024-01-30T12:08:28;95587.88;;;12.66;38.15
76086;BME280;64791;0.000;0.000;2024-01-30T12:10:57;95580.59;;;12.88;37.78
76086;BME280;64791;0.000;0.000;2024-01-30T12:13:27;95579.31;;;12.89;37.64
76086;BME280;64791;0.000;0.000;2024-01-30T12:15:53;95579.06;;;12.68;38.12
76086;BME280;64791;0.000;0.000;2024-01-30T12:18:19;95576.31;;;12.44;38.31
76086;BME280;64791;0.000;0.000;2024-01-30T12:20:45;95580.28;;;12.24;38.68
76086;BME280;64791;0.000;0.000;2024-01-30T12:23:13;95573.78;;;12.46;39.01
76086;BME280;64791;0.000;0.000;2024-01-30T12:25:39;95571.50;;;12.44;38.88
76086;BME280;64791;0.000;0.000;2024-01-30T12:28:05;95571.88;;;12.35;39.30
76086;BME280;64791;0.000;0.000;2024-01-30T12:30:31;95561.25;;;12.39;39.39
76086;BME280;64791;0.000;0.000;2024-01-30T12:32:57;95557.06;;;12.33;39.72
76086;BME280;64791;0.000;0.000;2024-01-30T12:35:23;95552.09;;;12.50;39.93
76086;BME280;64791;0.000;0.000;2024-01-30T12:37:48;95549.34;;;12.68;39.74
76086;BME280;64791;0.000;0.000;2024-01-30T12:40:14;95554.41;;;12.89;39.38
76086;BME280;64791;0.000;0.000;2024-01-30T12:42:40;95552.53;;;12.97;39.44
76086;BME280;64791;0.000;0.000;2024-01-30T12:45:08;95553.81;;;13.14;39.51
76086;BME280;64791;0.000;0.000;2024-01-30T12:47:34;95548.06;;;13.31;39.09
76086;BME280;64791;0.000;0.000;2024-01-30T12:50:00;95548.06;;;13.31;39.20
76086;BME280;64791;0.000;0.000;2024-01-30T12:52:26;95544.16;;;13.21;39.35
76086;BME280;64791;0.000;0.000;2024-01-30T12:54:52;95541.78;;;13.30;39.56
76086;BME280;64791;0.000;0.000;2024-01-30T12:57:17;95545.66;;;13.40;39.76
76086;BME280;64791;0.000;0.000;2024-01-30T12:59:43;95537.41;;;13.53;39.42
76086;BME280;64791;0.000;0.000;2024-01-30T13:02:09;95543.22;;;13.69;39.65
76086;BME280;64791;0.000;0.000;2024-01-30T13:04:35;95540.50;;;13.82;39.37
76086;BME280;64791;0.000;0.000;2024-01-30T13:07:02;95533.69;;;13.96;39.22
76086;BME280;64791;0.000;0.000;2024-01-30T13:09:29;95539.91;;;14.15;39.23
76086;BME280;64791;0.000;0.000;2024-01-30T13:11:55;95535.34;;;14.30;38.91
76086;BME280;64791;0.000;0.000;2024-01-30T13:14:20;95530.47;;;14.50;38.76
76086;BME280;64791;0.000;0.000;2024-01-30T13:16:46;95522.78;;;14.69;38.56
76086;BME280;64791;0.000;0.000;2024-01-30T13:19:12;95528.88;;;14.80;38.21
76086;BME280;64791;0.000;0.000;2024-01-30T13:21:37;95527.13;;;14.90;38.29
76086;BME280;64791;0.000;0.000;2024-01-30T13:24:03;95520.25;;;15.04;38.02
76086;BME280;64791;0.000;0.000;2024-01-30T13:26:29;95516.69;;;15.17;37.86
76086;BME280;64791;0.000;0.000;2024-01-30T13:28:56;95515.50;;;15.26;37.74
76086;BME280;64791;0.000;0.000;2024-01-30T13:31:22;95518.78;;;15.37;37.59
76086;BME280;64791;0.000;0.000;2024-01-30T13:33:48;95524.44;;;15.45;37.30
76086;BME280;64791;0.000;0.000;2024-01-30T13:36:14;95521.19;;;15.54;37.27
76086;BME280;64791;0.000;0.000;2024-01-30T13:38:40;95517.56;;;15.59;37.12
76086;BME280;64791;0.000;0.000;2024-01-30T13:41:06;95512.41;;;15.63;37.12
76086;BME280;64791;0.000;0.000;2024-01-30T13:43:31;95514.31;;;15.68;36.83
76086;BME280;64791;0.000;0.000;2024-01-30T13:45:57;95522.31;;;15.71;37.00
76086;BME280;64791;0.000;0.000;2024-01-30T13:48:23;95513.63;;;15.75;36.74
76086;BME280;64791;0.000;0.000;2024-01-30T13:50:49;95518.84;;;15.78;36.47
76086;BME280;64791;0.000;0.000;2024-01-30T13:53:15;95528.16;;;15.81;36.23
76086;BME280;64791;0.000;0.000;2024-01-30T13:55:41;95525.19;;;15.79;36.31
76086;BME280;64791;0.000;0.000;2024-01-30T13:58:07;95525.50;;;15.75;36.26
76086;BME280;64791;0.000;0.000;2024-01-30T14:00:33;95522.31;;;15.71;36.21
76086;BME280;64791;0.000;0.000;2024-01-30T14:02:59;95523.41;;;15.68;36.33
76086;BME280;64791;0.000;0.000;2024-01-30T14:05:25;95526.50;;;15.65;36.58
76086;BME280;64791;0.000;0.000;2024-01-30T14:07:51;95525.91;;;15.59;36.37
76086;BME280;64791;0.000;0.000;2024-01-30T14:10:16;95521.19;;;15.54;36.39
76086;BME280;64791;0.000;0.000;2024-01-30T14:12:43;95524.09;;;15.48;36.39
76086;BME280;64791;0.000;0.000;2024-01-30T14:15:09;95519.94;;;15.42;36.70
76086;BME280;64791;0.000;0.000;2024-01-30T14:17:35;95520.09;;;15.36;36.91
76086;BME280;64791;0.000;0.000;2024-01-30T14:20:02;95517.22;;;15.29;37.00
76086;BME280;64791;0.000;0.000;2024-01-30T14:22:28;95516.94;;;15.19;36.93
76086;BME280;64791;0.000;0.000;2024-01-30T14:24:54;95527.19;;;15.11;37.03
76086;BME280;64791;0.000;0.000;2024-01-30T14:27:22;95517.28;;;15.02;36.94
76086;BME280;64791;0.000;0.000;2024-01-30T14:29:47;95514.41;;;14.95;36.93
76086;BME280;64791;0.000;0.000;2024-01-30T14:32:13;95519.66;;;14.85;37.16
76086;BME280;64791;0.000;0.000;2024-01-30T14:34:39;95516.38;;;14.74;36.84
76086;BME280;64791;0.000;0.000;2024-01-30T14:37:05;95522.66;;;14.61;36.60
76086;BME280;64791;0.000;0.000;2024-01-30T14:39:30;95524.72;;;14.48;36.66
76086;BME280;64791;0.000;0.000;2024-01-30T14:41:56;95521.69;;;14.32;36.55
76086;BME280;64791;0.000;0.000;2024-01-30T14:44:22;95515.16;;;14.17;36.67
76086;BME280;64791;0.000;0.000;2024-01-30T14:46:48;95517.06;;;13.96;37.24
76086;BME280;64791;0.000;0.000;2024-01-30T14:49:14;95516.38;;;13.77;37.48
76086;BME280;64791;0.000;0.000;2024-01-30T14:51:42;95511.50;;;13.51;37.58
76086;BME280;64791;0.000;0.000;2024-01-30T14:54:08;95516.97;;;13.19;38.27
76086;BME280;64791;0.000;0.000;2024-01-30T14:56:34;95515.19;;;12.84;38.23
76086;BME280;64791;0.000;0.000;2024-01-30T14:59:00;95517.09;;;12.52;38.82
76086;BME280;64791;0.000;0.000;2024-01-30T15:01:26;95522.19;;;12.24;38.94
76086;BME280;64791;0.000;0.000;2024-01-30T15:03:52;95521.16;;;11.97;39.29
76086;BME280;64791;0.000;0.000;2024-01-30T15:06:18;95525.47;;;11.69;39.53
76086;BME280;64791;0.000;0.000;2024-01-30T15:08:44;95522.41;;;11.43;39.59
76086;BME280;64791;0.000;0.000;2024-01-30T15:11:10;95529.09;;;11.17;39.64
76086;BME280;64791;0.000;0.000;2024-01-30T15:13:36;95531.50;;;10.91;40.18
76086;BME280;64791;0.000;0.000;2024-01-30T15:16:02;95535.88;;;10.70;40.22
76086;BME280;64791;0.000;0.000;2024-01-30T15:18:30;95533.16;;;10.42;40.20
76086;BME280;64791;0.000;0.000;2024-01-30T15:20:55;95533.75;;;10.19;40.55
76086;BME280;64791;0.000;0.000;2024-01-30T15:23:21;95526.06;;;9.95;40.32
76086;BME280;64791;0.000;0.000;2024-01-30T15:25:47;95535.81;;;9.74;41.30
76086;BME280;64791;0.000;0.000;2024-01-30T15:28:13;95537.84;;;9.51;41.47
76086;BME280;64791;0.000;0.000;2024-01-30T15:30:40;95527.31;;;9.28;41.74
76086;BME280;64791;0.000;0.000;2024-01-30T15:33:09;95532.81;;;9.11;41.49
76086;BME280;64791;0.000;0.000;2024-01-30T15:35:35;95533.22;;;8.93;41.72
76086;BME280;64791;0.000;0.000;2024-01-30T15:38:01;95528.41;;;8.71;41.83
76086;BME280;64791;0.000;0.000;2024-01-30T15:40:26;95529.34;;;8.52;42.34
76086;BME280;64791;0.000;0.000;2024-01-30T15:42:52;95531.03;;;8.33;42.67
76086;BME280;64791;0.000;0.000;2024-01-30T15:45:18;95544.44;;;8.14;42.27
76086;BME280;64791;0.000;0.000;2024-01-30T15:47:44;95537.31;;;7.96;42.85
76086;BME280;64791;0.000;0.000;2024-01-30T15:50:13;95541.97;;;7.79;43.00
76086;BME280;64791;0.000;0.000;2024-01-30T15:52:38;95536.56;;;7.59;42.69
76086;BME280;64791;0.000;0.000;2024-01-30T15:55:04;95544.91;;;7.39;43.05
76086;BME280;64791;0.000;0.000;2024-01-30T15:57:30;95543.97;;;7.22;43.32
76086;BME280;64791;0.000;0.000;2024-01-30T15:59:57;95551.84;;;7.09;43.17
76086;BME280;64791;0.000;0.000;2024-01-30T16:02:23;95550.16;;;6.91;43.53
76086;BME280;64791;0.000;0.000;2024-01-30T16:04:49;95558.47;;;6.77;43.52
76086;BME280;64791;0.000;0.000;2024-01-30T16:07:15;95555.84;;;6.62;43.56
76086;BME280;64791;0.000;0.000;2024-01-30T16:09:40;95566.38;;;6.49;43.64
76086;BME280;64791;0.000;0.000;2024-01-30T16:12:07;95564.66;;;6.31;43.80
76086;BME280;64791;0.000;0.000;2024-01-30T16:14:33;95563.75;;;6.20;44.10
76086;BME280;64791;0.000;0.000;2024-01-30T16:17:01;95567.03;;;6.04;44.10
76086;BME280;64791;0.000;0.000;2024-01-30T16:19:27;95566.31;;;5.88;44.36